Архив погоды в Алатыре

Метеограмма Алатырь
Вторник, 25 Июня
Время местн. Темп Ветер Видим Явления Облачность нижн/средн/верх Атм. давл. Влжн Точка росы ВНГО R Сост. почвы Tg s
Напр Скр Прв ур.ст ур.м изм
06:00 +15.6° С,С-З 5 7 50 км - переменная облачность 750 766 +0.9 59% +7.6° - - Влажная (без луж) - -
03:00 +14.3° С,С-З 4 5 20 км - переменная облачность 749 765 +0.2 68% +8.5° - - - - -
00:00 +16.6° З,С-З 4 7 20 км - ясно 749 765 +0.1 64% +9.8° более 2.5 км - - - -
Понедельник, 24 Июня
Время местн. Темп Ветер Видим Явления Облачность нижн/средн/верх Атм. давл. Влжн Точка росы ВНГО R Сост. почвы Tg s
Напр Скр Прв ур.ст ур.м изм
21:00 +17.4° З,С-З 2 2 50 км - переменная облачность 749 764 +0.3 61% +9.8° - - - - -
18:00 +21.5° С 3 5 50 км - переменная облачность 748 764 -0.2 49% +10.2° - - - - -
15:00 +21.8° С,С-З 3 5 50 км небо без изменений {гроза, ливневые осадки} переменная облачность 748 764 +0.2 52% +11.4° - - - - -
12:00 +16.3° С,С-В 2 4 50 км ливневый дождь {гроза} облачно 748 764 -0.9 85% +13.8° 600 м - - - -
09:00 +18.4° З,С-З 7 12 50 км ливневый дождь преимущественно облачно 749 765 +1.5 63% +11.3° 600 м - - - -
06:00 +20.6° С 3 4 50 км - облачно с прояснениями 748 763 -0.1 64% +13.6° - - Сухая (без трещин) - -
03:00 +19.8° С 3 4 20 км - переменная облачность 748 763 +0.4 70% +14.1° 1 км - - - -
00:00 +22.4° С-З 3 3 20 км - переменная облачность 747 763 +0.4 60% +14.2° 1 км - - - -
Воскресенье, 23 Июня
Время местн. Темп Ветер Видим Явления Облачность нижн/средн/верх Атм. давл. Влжн Точка росы ВНГО R Сост. почвы Tg s
Напр Скр Прв ур.ст ур.м изм
21:00 +25.4° С 2 3 50 км - облачно с прояснениями 747 762 +0.5 53% +15.1° 1 км - - - -
18:00 +29.7° С 5 7 50 км - переменная облачность 747 762 -0.2 41% +15.2° - - - - -
15:00 +32.5° З 5 6 50 км - переменная облачность 747 762 -0.4 28% +11.9° 1 км - - - -
12:00 +31.9° З 5 9 50 км - переменная облачность 747 762 -0.4 25% +9.5° 1 км - - - -
09:00 +27.2° З,Ю-З 3 4 50 км - переменная облачность 747 763 +0.2 45% +14.2° 1 км - - - -
06:00 +21.5° З 3 4 50 км - переменная облачность 747 763 +0.4 57% +12.5° 1 км - Сухая (без трещин) - -
03:00 +20.8° З 3 5 50 км - ясно 747 763 +0.2 55% +11.4° более 2.5 км - - - -
00:00 +22.2° З 4 5 20 км - переменная облачность 747 762 -0.1 47% +10.4° 1 км - - - -
Суббота, 22 Июня
Время местн. Темп Ветер Видим Явления Облачность нижн/средн/верх Атм. давл. Влжн Точка росы ВНГО R Сост. почвы Tg s
Напр Скр Прв ур.ст ур.м изм
21:00 +22.9° З,Ю-З 3 3 50 км - переменная облачность 747 762 -0.1 49% +11.5° 1 км - - - -
18:00 +29.6° З 4 7 50 км - переменная облачность 747 762 -0.8 29% +9.5° более 2.5 км - - - -
15:00 +31.8° З 6 9 50 км - переменная облачность 748 763 -0.5 24% +8.5° 1 км - - - -
12:00 +30.7° Ю-З 4 7 50 км - переменная облачность 748 763 -0.5 25% +8.4° 1 км - - - -
09:00 +25.3° Ю 2 3 50 км - переменная облачность 748 764 -0.3 46% +12.9° более 2.5 км - - - -
06:00 +18.7° Ю 1 2 50 км - переменная облачность 749 765 +0.2 62% +11.2° - - Сухая (без трещин) - -
03:00 +18.1° Ю 2 2 20 км - переменная облачность 749 764 +0.3 52% +8.2° 1 км - - - -